Terminal Aerodrome Forecast
Issued by NWS

Home | Current Version | Previous Version | Text Only | Print | Product List | Glossary On
Versions: 1 2 3 4 5 6 7 8 9 10 11 12 13 14 15 16 17 18 19 20 21 22 23 24 25 26 27 28 29 30
000
FTAK31 PAFA 111139
TAFATA
TAF
PATA 111139Z 1112/1212 13010G18KT P6SM -FZRA BKN080
     FM111500 13008KT P6SM VCSH BKN080
     FM112100 13008KT P6SM -FZRA BKN035=

USA.gov is the U.S. government's official web portal to all federal, state and local government web resources and services.